Terminal Aerodrome Forecast
Issued by NWS

Home | Current Version | Previous Version | Text Only | Print | Product List | Glossary On
Versions: 1 2 3 4 5 6 7 8 9 10 11 12 13 14 15
525
FTUS42 KJAX 230537
TAFCRG
TAF
KCRG 230537Z 2306/2406 05008KT P6SM SCT030 SCT070 SCT150
     FM230800 04011G16KT P6SM VCSH BKN025 OVC060
     FM231400 05014G21KT P6SM VCSH BKN025 OVC050
     FM231700 06017G26KT P6SM VCSH BKN025 OVC070
     FM232300 05010G15KT P6SM SCT025 BKN070=

USA.gov is the U.S. government's official web portal to all federal, state and local government web resources and services.